createdAt,value
2022-10-05T00:00:22.306Z,20.73
2022-10-05T00:02:52.201Z,26.42
2022-10-05T00:05:31.863Z,26.52
2022-10-05T00:08:13.858Z,21.98
2022-10-05T00:10:42.346Z,20.20
2022-10-05T00:13:19.852Z,21.48
2022-10-05T00:15:47.979Z,16.33
2022-10-05T00:18:21.452Z,14.00
2022-10-05T00:20:49.175Z,13.63
2022-10-05T00:23:24.319Z,17.52
2022-10-05T00:25:51.926Z,17.23
2022-10-05T00:28:26.797Z,13.80
2022-10-05T00:30:58.497Z,12.75
2022-10-05T00:33:27.109Z,11.05
2022-10-05T00:35:55.525Z,23.65
2022-10-05T00:38:22.865Z,13.20
2022-10-05T00:41:08.665Z,14.20
2022-10-05T00:44:13.172Z,12.98
2022-10-05T00:46:58.728Z,11.30
2022-10-05T00:49:35.141Z,12.57
2022-10-05T00:52:23.488Z,12.70
2022-10-05T00:55:11.860Z,16.00
2022-10-05T00:58:01.429Z,15.40
2022-10-05T01:00:28.576Z,16.58
2022-10-05T01:03:10.082Z,18.60
2022-10-05T01:05:48.042Z,12.75
2022-10-05T01:08:40.338Z,14.98
2022-10-05T01:11:19.103Z,12.00
2022-10-05T01:14:21.433Z,10.32
2022-10-05T01:17:13.049Z,13.27
2022-10-05T01:20:05.622Z,13.60
2022-10-05T01:22:32.592Z,15.90
2022-10-05T01:25:19.807Z,19.63
2022-10-05T01:28:12.057Z,12.50
2022-10-05T01:31:06.066Z,13.57
2022-10-05T01:33:43.301Z,10.02
2022-10-05T01:36:45.633Z,12.60
2022-10-05T01:39:26.100Z,8.93
2022-10-05T01:42:13.174Z,11.38
2022-10-05T01:44:55.945Z,11.75
2022-10-05T01:47:47.628Z,16.20
2022-10-05T01:50:29.016Z,25.88
2022-10-05T01:52:59.966Z,16.92
2022-10-05T01:55:40.433Z,13.68
2022-10-05T01:58:25.779Z,16.58
2022-10-05T02:01:25.109Z,14.82
2022-10-05T02:04:37.271Z,15.93
2022-10-05T02:07:27.448Z,12.43
2022-10-05T02:10:00.848Z,11.98
2022-10-05T02:12:32.914Z,11.43
2022-10-05T02:15:12.728Z,12.63
2022-10-05T02:17:48.288Z,18.40
2022-10-05T02:20:23.846Z,9.63
2022-10-05T02:22:54.747Z,16.08
2022-10-05T02:25:28.738Z,14.32
2022-10-05T02:28:09.634Z,13.93
2022-10-05T02:30:43.023Z,18.58
2022-10-05T02:33:28.576Z,11.73
2022-10-05T02:36:07.583Z,15.38
2022-10-05T02:38:50.862Z,16.90
2022-10-05T02:41:39.659Z,11.15
2022-10-05T02:44:37.305Z,11.60
2022-10-05T02:47:24.373Z,10.25
2022-10-05T02:50:12.183Z,9.23
2022-10-05T02:52:39.205Z,10.63
2022-10-05T02:55:17.782Z,14.00
2022-10-05T02:57:52.702Z,15.38
2022-10-05T03:00:22.804Z,15.55
2022-10-05T03:03:04.577Z,27.08
2022-10-05T03:06:00.221Z,12.48
2022-10-05T03:09:06.019Z,12.75
2022-10-05T03:11:47.254Z,15.20
2022-10-05T03:14:38.725Z,15.05
2022-10-05T03:17:19.093Z,11.63
2022-10-05T03:20:16.486Z,16.58
2022-10-05T03:23:04.728Z,10.57
2022-10-05T03:25:54.043Z,14.00
2022-10-05T03:28:59.548Z,22.50
2022-10-05T03:31:51.379Z,14.10
2022-10-05T03:34:27.534Z,11.23
2022-10-05T03:37:00.879Z,13.13
2022-10-05T03:39:44.738Z,14.82
2022-10-05T03:42:37.630Z,14.43
2022-10-05T03:45:27.677Z,9.13
2022-10-05T03:48:07.218Z,9.15
2022-10-05T03:51:05.873Z,18.33
2022-10-05T03:53:48.061Z,9.55
2022-10-05T03:56:34.917Z,28.03
2022-10-05T03:59:20.225Z,22.02
2022-10-05T04:01:55.347Z,13.88
2022-10-05T04:04:37.303Z,10.00
2022-10-05T04:07:09.537Z,12.05
2022-10-05T04:09:40.994Z,11.85
2022-10-05T04:12:23.949Z,12.77
2022-10-05T04:17:31.445Z,13.02
2022-10-05T04:20:15.245Z,18.23
2022-10-05T04:23:09.781Z,17.05
2022-10-05T04:25:51.771Z,9.82
2022-10-05T04:28:33.873Z,10.55
2022-10-05T04:31:05.904Z,11.63
2022-10-05T04:33:33.475Z,13.67
2022-10-05T04:36:01.190Z,18.65
2022-10-05T04:38:31.558Z,9.73
2022-10-05T04:41:20.305Z,10.07
2022-10-05T04:44:02.159Z,12.73
2022-10-05T04:47:08.532Z,9.65
2022-10-05T04:49:47.903Z,11.57
2022-10-05T04:52:31.789Z,17.85
2022-10-05T04:55:19.257Z,13.30
2022-10-05T04:58:00.669Z,14.52
2022-10-05T05:01:05.343Z,17.83
2022-10-05T05:03:53.676Z,23.15
2022-10-05T05:06:32.578Z,21.13
2022-10-05T05:09:40.889Z,18.60
2022-10-05T05:12:10.906Z,20.60
2022-10-05T05:14:58.354Z,15.07
2022-10-05T05:17:41.352Z,30.73
2022-10-05T05:20:43.880Z,17.55
2022-10-05T05:23:32.852Z,21.53
2022-10-05T05:26:06.903Z,12.82
2022-10-05T05:29:15.557Z,11.25
2022-10-05T05:32:03.475Z,11.98
2022-10-05T05:34:43.025Z,17.30
2022-10-05T05:37:41.208Z,16.15
2022-10-05T05:40:36.283Z,16.25
2022-10-05T05:43:16.759Z,19.10
2022-10-05T05:46:14.501Z,11.75
2022-10-05T05:48:43.789Z,15.45
2022-10-05T05:51:38.096Z,12.07
2022-10-05T05:54:21.484Z,10.50
2022-10-05T05:57:08.887Z,10.68
2022-10-05T05:59:52.072Z,14.52
2022-10-05T06:02:25.303Z,13.00
2022-10-05T06:05:06.674Z,14.80
2022-10-05T06:07:37.841Z,13.15
2022-10-05T06:10:45.302Z,13.68
2022-10-05T06:13:23.003Z,17.80
2022-10-05T06:15:59.217Z,27.08
2022-10-05T06:18:28.318Z,14.07
2022-10-05T06:21:12.100Z,18.15
2022-10-05T06:26:43.029Z,18.13
2022-10-05T06:29:18.942Z,16.83
2022-10-05T06:32:02.223Z,20.63
2022-10-05T06:37:39.504Z,17.23
2022-10-05T06:40:27.444Z,19.45
2022-10-05T06:43:24.664Z,36.42
2022-10-05T06:46:26.076Z,21.40
2022-10-05T06:49:24.864Z,16.85
2022-10-05T06:52:36.942Z,22.48
2022-10-05T06:55:13.992Z,24.73
2022-10-05T06:57:47.775Z,19.88
2022-10-05T07:00:20.053Z,26.35
2022-10-05T07:03:22.121Z,25.73
2022-10-05T07:06:13.946Z,23.60
2022-10-05T07:09:14.234Z,28.37
2022-10-05T07:12:11.616Z,23.67
2022-10-05T07:14:51.666Z,24.60
2022-10-05T07:17:27.156Z,22.92
2022-10-05T07:20:03.670Z,25.40
2022-10-05T07:23:04.399Z,17.83
2022-10-05T07:25:41.661Z,20.23
2022-10-05T07:28:16.219Z,21.60
2022-10-05T07:31:28.393Z,28.23
2022-10-05T07:37:00.654Z,25.45
2022-10-05T07:39:59.720Z,27.83
2022-10-05T07:42:47.578Z,30.27
2022-10-05T07:45:27.018Z,28.55
2022-10-05T07:47:57.703Z,26.85
2022-10-05T07:50:46.584Z,26.85
2022-10-05T07:53:22.540Z,22.20
2022-10-05T07:55:56.686Z,18.23
2022-10-05T07:58:30.227Z,32.20
2022-10-05T08:01:14.252Z,23.65
2022-10-05T08:04:10.939Z,26.55
2022-10-05T08:06:40.866Z,34.20
2022-10-05T08:09:28.769Z,27.52
2022-10-05T08:12:06.431Z,24.63
2022-10-05T08:14:48.861Z,19.15
2022-10-05T08:17:28.874Z,24.40
2022-10-05T08:20:06.764Z,28.85
2022-10-05T08:22:45.909Z,34.22
2022-10-05T08:25:45.285Z,26.33
2022-10-05T08:28:27.850Z,27.02
2022-10-05T08:31:00.981Z,13.20
2022-10-05T08:33:32.229Z,17.40
2022-10-05T08:36:14.393Z,22.48
2022-10-05T08:38:42.033Z,21.63
2022-10-05T08:41:54.482Z,18.05
2022-10-05T08:44:30.498Z,16.35
2022-10-05T08:47:14.468Z,21.13
2022-10-05T08:50:18.780Z,14.50
2022-10-05T08:53:19.911Z,31.80
2022-10-05T08:56:29.100Z,15.85
2022-10-05T08:59:40.562Z,9.68
2022-10-05T09:02:18.507Z,11.38
2022-10-05T09:05:19.458Z,11.82
2022-10-05T09:08:24.270Z,9.75
2022-10-05T09:11:28.869Z,10.32
2022-10-05T09:14:21.565Z,7.93
2022-10-05T09:17:19.847Z,9.15
2022-10-05T09:19:59.752Z,10.32
2022-10-05T09:22:44.169Z,14.70
2022-10-05T09:25:23.487Z,17.45
2022-10-05T09:28:03.537Z,11.18
2022-10-05T09:30:55.653Z,7.15
2022-10-05T09:33:47.436Z,9.13
2022-10-05T09:36:47.937Z,5.55
2022-10-05T09:39:23.715Z,9.90
2022-10-05T09:42:22.403Z,8.95
2022-10-05T09:45:26.166Z,3.30
2022-10-05T09:48:13.042Z,5.53
2022-10-05T09:50:40.833Z,4.50
2022-10-05T09:53:17.025Z,5.15
2022-10-05T09:55:49.888Z,3.90
2022-10-05T09:58:34.929Z,5.38
2022-10-05T10:01:15.750Z,4.95
2022-10-05T10:04:20.325Z,2.85
2022-10-05T10:07:02.257Z,6.43
2022-10-05T10:09:50.632Z,1.93
2022-10-05T10:12:33.850Z,5.60
2022-10-05T10:15:23.926Z,11.63
2022-10-05T10:18:18.550Z,2.72
2022-10-05T10:21:16.116Z,3.10
2022-10-05T10:23:54.986Z,5.53
2022-10-05T10:26:56.240Z,9.38
2022-10-05T10:29:45.966Z,5.43
2022-10-05T10:32:27.249Z,1.75
2022-10-05T10:35:13.094Z,5.35
2022-10-05T10:38:02.577Z,2.30
2022-10-05T10:41:16.620Z,1.98
2022-10-05T10:44:21.108Z,3.53
2022-10-05T10:47:28.057Z,2.92
2022-10-05T10:50:26.197Z,4.95
2022-10-05T10:53:02.716Z,4.63
2022-10-05T10:55:57.852Z,2.80
2022-10-05T10:58:52.565Z,2.42
2022-10-05T11:01:39.406Z,1.77
2022-10-05T11:04:33.687Z,3.38
2022-10-05T11:07:19.413Z,2.28
2022-10-05T11:10:20.805Z,3.72
2022-10-05T11:13:12.907Z,1.58
2022-10-05T11:16:11.587Z,10.48
2022-10-05T11:19:20.272Z,2.97
2022-10-05T11:22:28.673Z,7.72
2022-10-05T11:25:35.058Z,3.38
2022-10-05T11:28:33.493Z,2.28
2022-10-05T11:31:34.221Z,1.40
2022-10-05T11:34:10.263Z,2.25
2022-10-05T11:36:56.030Z,2.70
2022-10-05T11:39:30.544Z,2.88
2022-10-05T11:42:25.228Z,5.63
2022-10-05T11:45:07.408Z,8.07
2022-10-05T11:47:49.639Z,2.08
2022-10-05T11:50:32.331Z,0.73
2022-10-05T11:53:06.078Z,1.30
2022-10-05T11:56:16.134Z,4.70
2022-10-05T11:58:43.165Z,6.90
2022-10-05T12:01:21.981Z,1.95
2022-10-05T12:04:15.174Z,2.10
2022-10-05T12:06:54.419Z,3.33
2022-10-05T12:10:05.823Z,4.95
2022-10-05T12:12:40.535Z,2.22
2022-10-05T12:15:35.146Z,11.45
2022-10-05T12:18:10.244Z,6.68
2022-10-05T12:21:07.324Z,2.03
2022-10-05T12:23:42.219Z,4.82
2022-10-05T12:26:14.883Z,7.15
2022-10-05T12:29:01.979Z,3.90
2022-10-05T12:31:56.414Z,1.13
2022-10-05T12:35:01.118Z,2.35
2022-10-05T12:37:58.972Z,6.20
2022-10-05T12:40:46.232Z,1.88
2022-10-05T12:43:28.271Z,3.05
2022-10-05T12:45:55.275Z,3.20
2022-10-05T12:48:52.445Z,11.95
2022-10-05T12:51:41.873Z,1.45
2022-10-05T12:54:27.621Z,11.52
2022-10-05T12:56:59.871Z,3.33
2022-10-05T12:59:42.366Z,4.70
2022-10-05T13:02:43.977Z,6.43
2022-10-05T13:05:10.911Z,4.00
2022-10-05T13:08:02.764Z,2.03
2022-10-05T13:10:37.978Z,3.95
2022-10-05T13:13:07.712Z,1.85
2022-10-05T13:15:58.113Z,1.60
2022-10-05T13:18:25.139Z,4.40
2022-10-05T13:20:58.072Z,2.25
2022-10-05T13:23:31.315Z,4.57
2022-10-05T13:26:39.660Z,2.35
2022-10-05T13:29:28.690Z,2.70
2022-10-05T13:32:00.539Z,18.08
2022-10-05T13:34:45.233Z,3.78
2022-10-05T13:37:17.959Z,2.80
2022-10-05T13:39:56.242Z,5.97
2022-10-05T13:43:02.741Z,5.10
2022-10-05T13:45:42.050Z,3.42
2022-10-05T13:48:25.349Z,1.48
2022-10-05T13:51:18.209Z,1.15
2022-10-05T13:53:49.686Z,4.75
2022-10-05T13:56:30.986Z,1.80
2022-10-05T13:59:27.396Z,2.30
2022-10-05T14:02:00.897Z,1.80
2022-10-05T14:04:42.060Z,3.88
2022-10-05T14:07:34.005Z,2.28
2022-10-05T14:10:04.445Z,3.22
2022-10-05T14:12:40.258Z,2.70
2022-10-05T14:15:29.208Z,4.38
2022-10-05T14:17:56.554Z,6.65
2022-10-05T14:20:26.813Z,3.00
2022-10-05T14:22:59.271Z,4.15
2022-10-05T14:25:28.490Z,5.18
2022-10-05T14:27:59.999Z,3.00
2022-10-05T14:30:29.918Z,2.25
2022-10-05T14:33:17.274Z,1.73
2022-10-05T14:35:51.897Z,1.08
2022-10-05T14:38:23.394Z,4.40
2022-10-05T14:41:12.201Z,3.45
2022-10-05T14:43:49.964Z,2.42
2022-10-05T14:46:17.641Z,3.17
2022-10-05T14:48:46.755Z,5.57
2022-10-05T14:51:31.759Z,3.58
2022-10-05T14:54:01.412Z,4.50
2022-10-05T14:56:28.426Z,3.08
2022-10-05T14:59:24.173Z,3.42
2022-10-05T15:02:02.667Z,5.45
2022-10-05T15:04:35.484Z,4.28
2022-10-05T15:07:11.271Z,3.67
2022-10-05T15:09:56.797Z,4.03
2022-10-05T15:12:38.371Z,1.80
2022-10-05T15:15:14.203Z,2.58
2022-10-05T15:17:54.392Z,4.03
2022-10-05T15:20:34.749Z,1.17
2022-10-05T15:27:21.302Z,7.15
2022-10-05T15:30:11.454Z,2.15
2022-10-05T15:32:49.734Z,1.08
2022-10-05T15:35:20.195Z,2.35
2022-10-05T15:37:53.228Z,1.15
2022-10-05T15:40:33.439Z,6.40
2022-10-05T15:43:11.450Z,1.73
2022-10-05T15:45:52.943Z,3.15
2022-10-05T15:48:56.139Z,3.45
2022-10-05T15:51:29.111Z,5.73
2022-10-05T15:54:26.163Z,4.65
2022-10-05T15:57:11.980Z,4.97
2022-10-05T15:59:58.020Z,4.03
2022-10-05T16:02:37.131Z,4.97
2022-10-05T16:05:42.942Z,4.75
2022-10-05T16:08:50.940Z,11.55
2022-10-05T16:11:32.964Z,2.30
2022-10-05T16:14:20.225Z,2.30
2022-10-05T16:16:59.532Z,4.38
2022-10-05T16:19:26.491Z,8.77
2022-10-05T16:21:58.751Z,4.47
2022-10-05T16:24:55.121Z,3.30
2022-10-05T16:27:52.739Z,8.25
2022-10-05T16:30:23.121Z,3.22
2022-10-05T16:32:58.155Z,3.47
2022-10-05T16:35:37.640Z,2.83
2022-10-05T16:38:24.818Z,2.85
2022-10-05T16:41:22.810Z,3.15
2022-10-05T16:44:10.731Z,3.65
2022-10-05T16:46:59.353Z,8.55
2022-10-05T16:49:52.460Z,4.20
2022-10-05T16:54:56.385Z,6.03
2022-10-05T16:57:35.919Z,9.65
2022-10-05T17:00:15.670Z,4.72
2022-10-05T17:02:53.021Z,7.97
2022-10-05T17:05:25.755Z,8.15
2022-10-05T17:10:49.573Z,6.88
2022-10-05T17:13:44.864Z,5.72
2022-10-05T17:16:26.574Z,4.40
2022-10-05T17:18:59.474Z,5.15
2022-10-05T17:21:34.642Z,5.05
2022-10-05T17:24:23.302Z,6.60
2022-10-05T17:26:58.345Z,9.95
2022-10-05T17:29:29.620Z,5.35
2022-10-05T17:32:33.564Z,6.00
2022-10-05T17:35:00.524Z,14.32
2022-10-05T17:37:27.473Z,4.57
2022-10-05T17:39:56.160Z,6.13
2022-10-05T17:42:43.077Z,14.10
2022-10-05T17:45:10.822Z,16.98
2022-10-05T17:47:57.726Z,18.17
2022-10-05T17:51:05.066Z,12.35
2022-10-05T17:54:03.401Z,13.10
2022-10-05T17:56:48.932Z,15.15
2022-10-05T17:59:45.695Z,7.47
2022-10-05T18:02:36.178Z,5.70
2022-10-05T18:05:04.783Z,12.38
2022-10-05T18:07:34.610Z,7.05
2022-10-05T18:10:16.772Z,6.60
2022-10-05T18:12:59.906Z,7.57
2022-10-05T18:15:26.823Z,8.40
2022-10-05T18:18:32.970Z,14.35
2022-10-05T18:21:14.351Z,6.88
2022-10-05T18:23:59.763Z,6.20
2022-10-05T18:26:52.158Z,9.40
2022-10-05T18:30:05.248Z,5.28
2022-10-05T18:32:45.271Z,7.88
2022-10-05T18:35:25.316Z,9.00
2022-10-05T18:38:05.004Z,9.07
2022-10-05T18:40:50.818Z,5.95
2022-10-05T18:43:41.938Z,9.60
2022-10-05T18:46:30.190Z,7.85
2022-10-05T18:49:03.184Z,7.43
2022-10-05T18:51:51.961Z,8.82
2022-10-05T18:54:43.187Z,9.07
2022-10-05T18:57:45.043Z,11.45
2022-10-05T19:00:31.629Z,13.20
2022-10-05T19:03:08.182Z,8.32
2022-10-05T19:05:56.701Z,10.32
2022-10-05T19:08:35.764Z,11.40
2022-10-05T19:11:12.533Z,11.43
2022-10-05T19:14:01.546Z,6.13
2022-10-05T19:16:56.378Z,5.07
2022-10-05T19:19:43.911Z,4.10
2022-10-05T19:22:42.868Z,8.15
2022-10-05T19:25:28.444Z,16.80
2022-10-05T19:28:17.843Z,6.05
2022-10-05T19:31:07.416Z,7.75
2022-10-05T19:33:52.625Z,5.13
2022-10-05T19:36:35.322Z,10.57
2022-10-05T19:39:27.517Z,6.57
2022-10-05T19:42:14.421Z,7.40
2022-10-05T19:45:07.065Z,10.50
2022-10-05T19:47:48.527Z,7.70
2022-10-05T19:50:18.732Z,3.58
2022-10-05T19:52:50.353Z,9.55
2022-10-05T19:55:20.395Z,7.95
2022-10-05T19:57:49.324Z,5.63
2022-10-05T20:00:35.309Z,6.28
2022-10-05T20:03:15.540Z,7.13
2022-10-05T20:05:42.826Z,4.10
2022-10-05T20:08:17.102Z,3.38
2022-10-05T20:10:45.769Z,3.67
2022-10-05T20:13:22.008Z,4.75
2022-10-05T20:16:35.746Z,8.85
2022-10-05T20:19:41.623Z,5.30
2022-10-05T20:22:23.884Z,8.02
2022-10-05T20:24:53.391Z,2.83
2022-10-05T20:27:42.194Z,1.92
2022-10-05T20:30:11.576Z,5.05
2022-10-05T20:32:38.574Z,2.20
2022-10-05T20:35:06.867Z,3.88
2022-10-05T20:37:34.021Z,5.53
2022-10-05T20:40:01.052Z,3.30
2022-10-05T20:42:28.049Z,12.43
2022-10-05T20:44:57.259Z,5.97
2022-10-05T20:47:25.535Z,6.80
2022-10-05T20:49:55.554Z,6.30
2022-10-05T20:52:25.658Z,4.50
2022-10-05T20:54:56.521Z,4.60
2022-10-05T20:57:24.188Z,13.20
2022-10-05T20:59:51.486Z,7.35
2022-10-05T21:02:19.493Z,5.40
2022-10-05T21:04:47.832Z,3.30
2022-10-05T21:07:16.660Z,4.45
2022-10-05T21:09:44.663Z,7.15
2022-10-05T21:12:11.873Z,4.28
2022-10-05T21:14:38.989Z,1.90
2022-10-05T21:17:06.651Z,4.22
2022-10-05T21:19:38.223Z,6.78
2022-10-05T21:22:09.593Z,7.68
2022-10-05T21:24:38.828Z,7.25
2022-10-05T21:27:06.599Z,29.30
2022-10-05T21:29:35.340Z,6.80
2022-10-05T21:32:03.209Z,2.38
2022-10-05T21:34:30.270Z,6.57
2022-10-05T21:36:57.294Z,4.45
2022-10-05T21:39:24.677Z,3.95
2022-10-05T21:41:51.952Z,7.75
2022-10-05T21:44:19.210Z,2.85
2022-10-05T21:46:47.584Z,8.77
2022-10-05T21:49:19.534Z,4.00
2022-10-05T21:51:47.314Z,3.35
2022-10-05T21:54:19.630Z,7.35
2022-10-05T21:56:50.224Z,2.90
2022-10-05T21:59:20.209Z,9.18
2022-10-05T22:01:47.258Z,8.00
2022-10-05T22:04:15.002Z,7.57
2022-10-05T22:06:42.020Z,2.53
2022-10-05T22:09:09.419Z,5.38
2022-10-05T22:11:36.471Z,8.25
2022-10-05T22:14:03.589Z,5.25
2022-10-05T22:16:34.030Z,1.52
2022-10-05T22:19:05.768Z,3.22
2022-10-05T22:21:37.961Z,4.47
2022-10-05T22:24:05.407Z,3.00
2022-10-05T22:26:32.917Z,3.13
2022-10-05T22:29:01.690Z,3.67
2022-10-05T22:31:28.890Z,12.48
2022-10-05T22:33:55.948Z,5.60
2022-10-05T22:36:23.138Z,3.60
2022-10-05T22:38:50.160Z,5.72
2022-10-05T22:41:18.344Z,9.40
2022-10-05T22:43:49.870Z,5.40
2022-10-05T22:46:17.509Z,5.18
2022-10-05T22:48:44.763Z,8.85
2022-10-05T22:51:11.764Z,8.70
2022-10-05T22:53:38.788Z,6.90
2022-10-05T22:56:08.585Z,11.95
2022-10-05T22:58:36.466Z,3.80
2022-10-05T23:01:05.738Z,5.07
2022-10-05T23:03:33.598Z,8.13
2022-10-05T23:06:09.709Z,5.00
2022-10-05T23:08:38.034Z,11.32
2022-10-05T23:11:07.565Z,16.95
2022-10-05T23:13:34.611Z,2.58
2022-10-05T23:16:24.893Z,5.47
2022-10-05T23:18:54.371Z,8.35
2022-10-05T23:21:23.209Z,7.40
2022-10-05T23:23:53.589Z,7.78
2022-10-05T23:26:25.254Z,2.72
2022-10-05T23:28:52.362Z,3.50
2022-10-05T23:31:21.769Z,7.70
2022-10-05T23:33:49.164Z,10.18
2022-10-05T23:36:27.642Z,6.40
2022-10-05T23:38:54.610Z,6.55
2022-10-05T23:41:21.709Z,7.65
2022-10-05T23:43:48.999Z,5.72
2022-10-05T23:46:17.652Z,12.85
2022-10-05T23:48:44.777Z,11.02
2022-10-05T23:51:13.430Z,10.80
2022-10-05T23:53:40.408Z,7.78
2022-10-05T23:56:07.443Z,8.80
2022-10-05T23:58:34.450Z,3.88
